sensor_id;sensor_type;location;lat;lon;timestamp;P1;durP1;ratioP1;P2;durP2;ratioP2
19673;SDS011;9986;50.610;7.230;2022-08-21T00:03:13;5.00;;;3.50;;
19673;SDS011;9986;50.610;7.230;2022-08-21T00:05:51;6.63;;;3.60;;
19673;SDS011;9986;50.610;7.230;2022-08-21T00:08:30;4.57;;;3.07;;
19673;SDS011;9986;50.610;7.230;2022-08-21T00:16:14;8.17;;;3.60;;
19673;SDS011;9986;50.610;7.230;2022-08-21T00:18:52;6.63;;;3.50;;
19673;SDS011;9986;50.610;7.230;2022-08-21T00:21:32;4.70;;;3.57;;
19673;SDS011;9986;50.610;7.230;2022-08-21T00:24:13;7.30;;;3.50;;
19673;SDS011;9986;50.610;7.230;2022-08-21T00:26:50;5.93;;;3.47;;
19673;SDS011;9986;50.610;7.230;2022-08-21T00:32:07;4.37;;;3.73;;
19673;SDS011;9986;50.610;7.230;2022-08-21T00:37:17;4.87;;;3.30;;
19673;SDS011;9986;50.610;7.230;2022-08-21T00:39:55;6.40;;;3.40;;
19673;SDS011;9986;50.610;7.230;2022-08-21T00:47:39;5.27;;;3.20;;
19673;SDS011;9986;50.610;7.230;2022-08-21T00:50:16;4.83;;;3.27;;
19673;SDS011;9986;50.610;7.230;2022-08-21T00:52:54;5.43;;;3.53;;
19673;SDS011;9986;50.610;7.230;2022-08-21T00:58:11;4.93;;;4.00;;
19673;SDS011;9986;50.610;7.230;2022-08-21T01:00:50;4.07;;;3.00;;
19673;SDS011;9986;50.610;7.230;2022-08-21T01:05:58;6.00;;;3.43;;
19673;SDS011;9986;50.610;7.230;2022-08-21T01:11:14;5.80;;;3.50;;
19673;SDS011;9986;50.610;7.230;2022-08-21T01:14:03;5.07;;;3.20;;
19673;SDS011;9986;50.610;7.230;2022-08-21T01:16:41;5.97;;;3.47;;
19673;SDS011;9986;50.610;7.230;2022-08-21T01:19:21;7.67;;;3.43;;
19673;SDS011;9986;50.610;7.230;2022-08-21T01:21:59;5.33;;;3.93;;
19673;SDS011;9986;50.610;7.230;2022-08-21T01:24:36;4.43;;;3.13;;
19673;SDS011;9986;50.610;7.230;2022-08-21T01:27:17;6.33;;;3.40;;
19673;SDS011;9986;50.610;7.230;2022-08-21T01:32:31;5.53;;;4.07;;
19673;SDS011;9986;50.610;7.230;2022-08-21T01:37:38;4.97;;;3.57;;
19673;SDS011;9986;50.610;7.230;2022-08-21T01:40:16;6.63;;;3.67;;
19673;SDS011;9986;50.610;7.230;2022-08-21T01:42:54;4.57;;;3.63;;
19673;SDS011;9986;50.610;7.230;2022-08-21T01:45:32;5.30;;;3.93;;
19673;SDS011;9986;50.610;7.230;2022-08-21T01:48:09;7.90;;;4.00;;
19673;SDS011;9986;50.610;7.230;2022-08-21T01:50:47;5.77;;;3.63;;
19673;SDS011;9986;50.610;7.230;2022-08-21T01:53:18;6.03;;;4.00;;
19673;SDS011;9986;50.610;7.230;2022-08-21T01:55:59;6.63;;;3.97;;
19673;SDS011;9986;50.610;7.230;2022-08-21T02:01:15;5.83;;;4.10;;
19673;SDS011;9986;50.610;7.230;2022-08-21T02:03:53;12.37;;;4.37;;
19673;SDS011;9986;50.610;7.230;2022-08-21T02:11:36;4.73;;;3.40;;
19673;SDS011;9986;50.610;7.230;2022-08-21T02:14:22;7.17;;;4.10;;
19673;SDS011;9986;50.610;7.230;2022-08-21T02:17:00;4.67;;;3.57;;
19673;SDS011;9986;50.610;7.230;2022-08-21T02:19:38;5.07;;;3.43;;
19673;SDS011;9986;50.610;7.230;2022-08-21T02:22:16;5.40;;;3.73;;
19673;SDS011;9986;50.610;7.230;2022-08-21T02:24:53;5.57;;;3.87;;
19673;SDS011;9986;50.610;7.230;2022-08-21T02:27:32;8.00;;;4.17;;
19673;SDS011;9986;50.610;7.230;2022-08-21T02:32:47;6.57;;;3.70;;
19673;SDS011;9986;50.610;7.230;2022-08-21T02:35:30;8.37;;;4.20;;
19673;SDS011;9986;50.610;7.230;2022-08-21T02:38:15;9.47;;;4.20;;
19673;SDS011;9986;50.610;7.230;2022-08-21T02:43:32;5.60;;;3.50;;
19673;SDS011;9986;50.610;7.230;2022-08-21T02:48:52;9.50;;;4.30;;
19673;SDS011;9986;50.610;7.230;2022-08-21T02:51:29;6.20;;;4.47;;
19673;SDS011;9986;50.610;7.230;2022-08-21T02:56:37;6.63;;;3.83;;
19673;SDS011;9986;50.610;7.230;2022-08-21T03:01:44;9.07;;;4.30;;
19673;SDS011;9986;50.610;7.230;2022-08-21T03:06:59;8.77;;;4.70;;
19673;SDS011;9986;50.610;7.230;2022-08-21T03:09:37;5.93;;;4.03;;
19673;SDS011;9986;50.610;7.230;2022-08-21T03:12:14;9.37;;;4.33;;
19673;SDS011;9986;50.610;7.230;2022-08-21T03:14:52;7.00;;;4.00;;
19673;SDS011;9986;50.610;7.230;2022-08-21T03:17:32;6.43;;;4.20;;
19673;SDS011;9986;50.610;7.230;2022-08-21T03:22:40;9.10;;;4.57;;
19673;SDS011;9986;50.610;7.230;2022-08-21T03:25:18;7.90;;;4.03;;
19673;SDS011;9986;50.610;7.230;2022-08-21T03:27:56;7.67;;;4.13;;
19673;SDS011;9986;50.610;7.230;2022-08-21T03:33:03;7.53;;;4.60;;
19673;SDS011;9986;50.610;7.230;2022-08-21T03:38:11;7.53;;;4.23;;
19673;SDS011;9986;50.610;7.230;2022-08-21T03:40:48;5.57;;;4.10;;
19673;SDS011;9986;50.610;7.230;2022-08-21T03:46:03;5.63;;;4.10;;
19673;SDS011;9986;50.610;7.230;2022-08-21T03:51:11;6.30;;;4.53;;
19673;SDS011;9986;50.610;7.230;2022-08-21T03:53:55;6.50;;;4.30;;
19673;SDS011;9986;50.610;7.230;2022-08-21T03:56:33;6.30;;;4.37;;
19673;SDS011;9986;50.610;7.230;2022-08-21T03:59:11;7.03;;;4.93;;
19673;SDS011;9986;50.610;7.230;2022-08-21T04:01:53;7.43;;;5.03;;
19673;SDS011;9986;50.610;7.230;2022-08-21T04:07:01;5.07;;;4.23;;
19673;SDS011;9986;50.610;7.230;2022-08-21T04:09:39;8.40;;;4.73;;
19673;SDS011;9986;50.610;7.230;2022-08-21T04:12:20;4.70;;;4.23;;
19673;SDS011;9986;50.610;7.230;2022-08-21T04:14:58;8.43;;;4.20;;
19673;SDS011;9986;50.610;7.230;2022-08-21T04:17:42;8.33;;;4.80;;
19673;SDS011;9986;50.610;7.230;2022-08-21T04:22:56;6.27;;;4.13;;
19673;SDS011;9986;50.610;7.230;2022-08-21T04:25:34;9.80;;;4.47;;
19673;SDS011;9986;50.610;7.230;2022-08-21T04:28:12;4.80;;;4.27;;
19673;SDS011;9986;50.610;7.230;2022-08-21T04:30:43;6.23;;;4.63;;
19673;SDS011;9986;50.610;7.230;2022-08-21T04:33:21;8.23;;;4.33;;
19673;SDS011;9986;50.610;7.230;2022-08-21T04:35:59;6.77;;;4.53;;
19673;SDS011;9986;50.610;7.230;2022-08-21T04:41:13;5.70;;;4.47;;
19673;SDS011;9986;50.610;7.230;2022-08-21T04:43:50;7.90;;;4.43;;
19673;SDS011;9986;50.610;7.230;2022-08-21T04:46:28;7.13;;;4.90;;
19673;SDS011;9986;50.610;7.230;2022-08-21T04:49:06;22.67;;;16.97;;
19673;SDS011;9986;50.610;7.230;2022-08-21T04:51:49;6.93;;;4.93;;
19673;SDS011;9986;50.610;7.230;2022-08-21T04:57:08;8.63;;;5.40;;
19673;SDS011;9986;50.610;7.230;2022-08-21T04:59:47;6.40;;;5.00;;
19673;SDS011;9986;50.610;7.230;2022-08-21T05:07:55;7.53;;;5.00;;
19673;SDS011;9986;50.610;7.230;2022-08-21T05:10:34;7.83;;;5.53;;
19673;SDS011;9986;50.610;7.230;2022-08-21T05:13:18;8.10;;;5.37;;
19673;SDS011;9986;50.610;7.230;2022-08-21T05:15:56;7.63;;;5.57;;
19673;SDS011;9986;50.610;7.230;2022-08-21T05:21:17;8.67;;;5.20;;
19673;SDS011;9986;50.610;7.230;2022-08-21T05:26:33;8.67;;;5.17;;
19673;SDS011;9986;50.610;7.230;2022-08-21T05:34:23;5.80;;;4.67;;
19673;SDS011;9986;50.610;7.230;2022-08-21T05:37:03;8.23;;;5.00;;
19673;SDS011;9986;50.610;7.230;2022-08-21T05:39:41;6.87;;;5.10;;
19673;SDS011;9986;50.610;7.230;2022-08-21T05:42:25;8.43;;;5.33;;
19673;SDS011;9986;50.610;7.230;2022-08-21T05:45:03;8.03;;;5.97;;
19673;SDS011;9986;50.610;7.230;2022-08-21T05:47:41;8.03;;;5.10;;
19673;SDS011;9986;50.610;7.230;2022-08-21T05:50:25;6.20;;;5.33;;
19673;SDS011;9986;50.610;7.230;2022-08-21T05:53:03;7.37;;;5.27;;
19673;SDS011;9986;50.610;7.230;2022-08-21T05:55:47;11.93;;;5.67;;
19673;SDS011;9986;50.610;7.230;2022-08-21T05:58:25;7.97;;;4.77;;
19673;SDS011;9986;50.610;7.230;2022-08-21T06:01:10;10.73;;;5.47;;
19673;SDS011;9986;50.610;7.230;2022-08-21T06:03:48;7.17;;;5.13;;
19673;SDS011;9986;50.610;7.230;2022-08-21T06:06:26;6.00;;;5.10;;
19673;SDS011;9986;50.610;7.230;2022-08-21T06:09:09;8.77;;;5.67;;
19673;SDS011;9986;50.610;7.230;2022-08-21T06:11:54;9.40;;;5.53;;
19673;SDS011;9986;50.610;7.230;2022-08-21T06:14:32;9.20;;;5.57;;
19673;SDS011;9986;50.610;7.230;2022-08-21T06:19:56;7.47;;;5.50;;
19673;SDS011;9986;50.610;7.230;2022-08-21T06:25:03;5.90;;;5.30;;
19673;SDS011;9986;50.610;7.230;2022-08-21T06:27:44;8.10;;;4.80;;
19673;SDS011;9986;50.610;7.230;2022-08-21T06:35:34;7.73;;;5.10;;
19673;SDS011;9986;50.610;7.230;2022-08-21T06:40:48;8.63;;;5.53;;
19673;SDS011;9986;50.610;7.230;2022-08-21T06:43:26;8.33;;;5.37;;
19673;SDS011;9986;50.610;7.230;2022-08-21T06:46:04;6.23;;;5.23;;
19673;SDS011;9986;50.610;7.230;2022-08-21T06:48:48;7.43;;;4.90;;
19673;SDS011;9986;50.610;7.230;2022-08-21T06:51:26;5.10;;;4.57;;
19673;SDS011;9986;50.610;7.230;2022-08-21T06:54:04;7.47;;;5.17;;
19673;SDS011;9986;50.610;7.230;2022-08-21T06:56:44;5.87;;;4.60;;
19673;SDS011;9986;50.610;7.230;2022-08-21T06:59:22;10.33;;;5.87;;
19673;SDS011;9986;50.610;7.230;2022-08-21T07:02:00;7.37;;;5.13;;
19673;SDS011;9986;50.610;7.230;2022-08-21T07:04:44;7.37;;;5.00;;
19673;SDS011;9986;50.610;7.230;2022-08-21T07:10:05;7.10;;;5.30;;
19673;SDS011;9986;50.610;7.230;2022-08-21T07:12:44;8.50;;;5.13;;
19673;SDS011;9986;50.610;7.230;2022-08-21T07:15:21;8.50;;;4.67;;
19673;SDS011;9986;50.610;7.230;2022-08-21T07:18:00;5.50;;;4.13;;
19673;SDS011;9986;50.610;7.230;2022-08-21T07:23:11;7.80;;;4.73;;
19673;SDS011;9986;50.610;7.230;2022-08-21T07:25:53;5.60;;;4.53;;
19673;SDS011;9986;50.610;7.230;2022-08-21T07:28:33;11.47;;;4.97;;
19673;SDS011;9986;50.610;7.230;2022-08-21T07:31:12;6.33;;;4.53;;
19673;SDS011;9986;50.610;7.230;2022-08-21T07:33:50;6.80;;;4.53;;
19673;SDS011;9986;50.610;7.230;2022-08-21T07:36:34;6.73;;;4.97;;
19673;SDS011;9986;50.610;7.230;2022-08-21T07:39:18;8.23;;;4.73;;
19673;SDS011;9986;50.610;7.230;2022-08-21T07:47:07;8.10;;;6.43;;
19673;SDS011;9986;50.610;7.230;2022-08-21T07:52:21;10.07;;;5.27;;
19673;SDS011;9986;50.610;7.230;2022-08-21T07:57:29;9.33;;;5.10;;
19673;SDS011;9986;50.610;7.230;2022-08-21T08:00:09;13.17;;;5.40;;
19673;SDS011;9986;50.610;7.230;2022-08-21T08:02:48;9.97;;;5.30;;
19673;SDS011;9986;50.610;7.230;2022-08-21T08:05:34;7.77;;;4.90;;
19673;SDS011;9986;50.610;7.230;2022-08-21T08:08:12;9.60;;;5.43;;
19673;SDS011;9986;50.610;7.230;2022-08-21T08:13:22;7.70;;;5.07;;
19673;SDS011;9986;50.610;7.230;2022-08-21T08:21:25;10.83;;;5.17;;
19673;SDS011;9986;50.610;7.230;2022-08-21T08:26:39;11.70;;;5.80;;
19673;SDS011;9986;50.610;7.230;2022-08-21T08:31:47;12.63;;;6.07;;
19673;SDS011;9986;50.610;7.230;2022-08-21T08:34:30;10.13;;;5.60;;
19673;SDS011;9986;50.610;7.230;2022-08-21T08:37:15;13.20;;;6.30;;
19673;SDS011;9986;50.610;7.230;2022-08-21T08:39:53;9.80;;;5.10;;
19673;SDS011;9986;50.610;7.230;2022-08-21T08:42:37;10.73;;;4.80;;
19673;SDS011;9986;50.610;7.230;2022-08-21T08:45:21;10.53;;;4.83;;
19673;SDS011;9986;50.610;7.230;2022-08-21T08:48:06;8.50;;;5.00;;
19673;SDS011;9986;50.610;7.230;2022-08-21T08:50:42;10.00;;;5.37;;
19673;SDS011;9986;50.610;7.230;2022-08-21T08:56:01;7.90;;;4.03;;
19673;SDS011;9986;50.610;7.230;2022-08-21T08:58:44;5.20;;;3.33;;
19673;SDS011;9986;50.610;7.230;2022-08-21T09:03:52;9.20;;;3.87;;
19673;SDS011;9986;50.610;7.230;2022-08-21T09:06:34;10.00;;;4.07;;
19673;SDS011;9986;50.610;7.230;2022-08-21T09:12:09;6.03;;;3.20;;
19673;SDS011;9986;50.610;7.230;2022-08-21T09:14:52;6.00;;;3.80;;
19673;SDS011;9986;50.610;7.230;2022-08-21T09:30:46;5.50;;;2.77;;
19673;SDS011;9986;50.610;7.230;2022-08-21T09:33:24;3.30;;;2.30;;
19673;SDS011;9986;50.610;7.230;2022-08-21T09:38:33;5.80;;;2.67;;
19673;SDS011;9986;50.610;7.230;2022-08-21T09:41:25;5.20;;;2.93;;
19673;SDS011;9986;50.610;7.230;2022-08-21T09:43:57;8.47;;;2.37;;
19673;SDS011;9986;50.610;7.230;2022-08-21T09:46:50;4.20;;;2.30;;
19673;SDS011;9986;50.610;7.230;2022-08-21T09:49:37;3.43;;;2.13;;
19673;SDS011;9986;50.610;7.230;2022-08-21T09:52:20;5.57;;;2.23;;
19673;SDS011;9986;50.610;7.230;2022-08-21T09:55:04;7.00;;;2.47;;
19673;SDS011;9986;50.610;7.230;2022-08-21T09:57:46;4.07;;;2.10;;
19673;SDS011;9986;50.610;7.230;2022-08-21T10:03:12;2.63;;;2.17;;
19673;SDS011;9986;50.610;7.230;2022-08-21T10:05:52;6.00;;;2.13;;
19673;SDS011;9986;50.610;7.230;2022-08-21T10:08:28;2.93;;;1.80;;
19673;SDS011;9986;50.610;7.230;2022-08-21T10:11:09;5.67;;;2.47;;
19673;SDS011;9986;50.610;7.230;2022-08-21T10:13:50;3.57;;;2.20;;
19673;SDS011;9986;50.610;7.230;2022-08-21T10:16:30;5.33;;;2.03;;
19673;SDS011;9986;50.610;7.230;2022-08-21T10:19:15;2.63;;;1.87;;
19673;SDS011;9986;50.610;7.230;2022-08-21T10:22:05;3.37;;;1.83;;
19673;SDS011;9986;50.610;7.230;2022-08-21T10:24:48;3.23;;;1.70;;
19673;SDS011;9986;50.610;7.230;2022-08-21T10:27:36;3.63;;;1.80;;
19673;SDS011;9986;50.610;7.230;2022-08-21T10:30:21;4.57;;;1.40;;
19673;SDS011;9986;50.610;7.230;2022-08-21T10:33:04;5.57;;;1.80;;
19673;SDS011;9986;50.610;7.230;2022-08-21T10:35:48;5.20;;;1.83;;
19673;SDS011;9986;50.610;7.230;2022-08-21T10:41:14;3.73;;;1.77;;
19673;SDS011;9986;50.610;7.230;2022-08-21T10:46:36;4.17;;;1.60;;
19673;SDS011;9986;50.610;7.230;2022-08-21T10:51:49;2.43;;;1.50;;
19673;SDS011;9986;50.610;7.230;2022-08-21T10:57:03;4.23;;;1.70;;
19673;SDS011;9986;50.610;7.230;2022-08-21T10:59:42;5.23;;;1.53;;
19673;SDS011;9986;50.610;7.230;2022-08-21T11:02:22;3.63;;;1.57;;
19673;SDS011;9986;50.610;7.230;2022-08-21T11:05:01;3.30;;;1.93;;
19673;SDS011;9986;50.610;7.230;2022-08-21T11:07:47;4.03;;;1.80;;
19673;SDS011;9986;50.610;7.230;2022-08-21T11:10:31;4.90;;;1.85;;
19673;SDS011;9986;50.610;7.230;2022-08-21T11:13:13;4.00;;;1.45;;
19673;SDS011;9986;50.610;7.230;2022-08-21T11:18:26;3.10;;;1.30;;
19673;SDS011;9986;50.610;7.230;2022-08-21T11:21:15;3.15;;;1.60;;
19673;SDS011;9986;50.610;7.230;2022-08-21T11:23:59;3.37;;;1.50;;
19673;SDS011;9986;50.610;7.230;2022-08-21T11:26:43;2.50;;;1.57;;
19673;SDS011;9986;50.610;7.230;2022-08-21T11:32:05;3.42;;;1.67;;
19673;SDS011;9986;50.610;7.230;2022-08-21T11:37:28;5.37;;;1.77;;
19673;SDS011;9986;50.610;7.230;2022-08-21T11:42:59;4.70;;;1.82;;
19673;SDS011;9986;50.610;7.230;2022-08-21T11:45:36;4.10;;;1.50;;
19673;SDS011;9986;50.610;7.230;2022-08-21T11:48:14;2.35;;;1.25;;
19673;SDS011;9986;50.610;7.230;2022-08-21T11:50:53;3.70;;;1.32;;
19673;SDS011;9986;50.610;7.230;2022-08-21T11:56:05;2.00;;;1.30;;
19673;SDS011;9986;50.610;7.230;2022-08-21T12:01:21;4.25;;;1.70;;
19673;SDS011;9986;50.610;7.230;2022-08-21T12:04:07;4.35;;;1.55;;
19673;SDS011;9986;50.610;7.230;2022-08-21T12:06:46;3.35;;;1.72;;
19673;SDS011;9986;50.610;7.230;2022-08-21T12:09:31;5.70;;;1.80;;
19673;SDS011;9986;50.610;7.230;2022-08-21T12:12:23;6.25;;;2.12;;
19673;SDS011;9986;50.610;7.230;2022-08-21T12:15:14;4.12;;;1.40;;
19673;SDS011;9986;50.610;7.230;2022-08-21T12:18:20;6.10;;;1.75;;
19673;SDS011;9986;50.610;7.230;2022-08-21T12:23:44;4.47;;;2.02;;
19673;SDS011;9986;50.610;7.230;2022-08-21T12:26:31;4.65;;;1.77;;
19673;SDS011;9986;50.610;7.230;2022-08-21T12:29:13;3.20;;;1.40;;
19673;SDS011;9986;50.610;7.230;2022-08-21T12:37:18;4.33;;;1.55;;
19673;SDS011;9986;50.610;7.230;2022-08-21T12:42:37;3.08;;;1.57;;
19673;SDS011;9986;50.610;7.230;2022-08-21T12:45:17;4.08;;;1.52;;
19673;SDS011;9986;50.610;7.230;2022-08-21T12:47:55;2.72;;;1.37;;
19673;SDS011;9986;50.610;7.230;2022-08-21T12:50:36;3.25;;;1.45;;
19673;SDS011;9986;50.610;7.230;2022-08-21T12:53:17;4.25;;;1.52;;
19673;SDS011;9986;50.610;7.230;2022-08-21T12:56:03;3.10;;;1.35;;
19673;SDS011;9986;50.610;7.230;2022-08-21T12:58:46;1.27;;;1.17;;
19673;SDS011;9986;50.610;7.230;2022-08-21T13:04:08;1.72;;;1.30;;
19673;SDS011;9986;50.610;7.230;2022-08-21T13:09:22;2.70;;;1.47;;
19673;SDS011;9986;50.610;7.230;2022-08-21T13:14:40;5.03;;;1.60;;
19673;SDS011;9986;50.610;7.230;2022-08-21T13:17:22;3.37;;;1.47;;
19673;SDS011;9986;50.610;7.230;2022-08-21T13:20:09;3.35;;;1.55;;
19673;SDS011;9986;50.610;7.230;2022-08-21T13:22:56;2.37;;;1.40;;
19673;SDS011;9986;50.610;7.230;2022-08-21T13:25:30;4.03;;;1.47;;
19673;SDS011;9986;50.610;7.230;2022-08-21T13:28:12;2.95;;;1.40;;
19673;SDS011;9986;50.610;7.230;2022-08-21T13:30:50;3.35;;;1.57;;
19673;SDS011;9986;50.610;7.230;2022-08-21T13:36:01;4.47;;;1.52;;
19673;SDS011;9986;50.610;7.230;2022-08-21T13:38:41;2.67;;;1.80;;
19673;SDS011;9986;50.610;7.230;2022-08-21T13:41:20;1.87;;;1.20;;
19673;SDS011;9986;50.610;7.230;2022-08-21T13:43:59;2.65;;;1.52;;
19673;SDS011;9986;50.610;7.230;2022-08-21T13:49:12;2.60;;;1.32;;
19673;SDS011;9986;50.610;7.230;2022-08-21T13:54:23;3.62;;;1.32;;
19673;SDS011;9986;50.610;7.230;2022-08-21T13:57:02;3.25;;;1.45;;
19673;SDS011;9986;50.610;7.230;2022-08-21T13:59:52;2.67;;;1.40;;
19673;SDS011;9986;50.610;7.230;2022-08-21T14:02:29;3.42;;;1.55;;
19673;SDS011;9986;50.610;7.230;2022-08-21T14:05:18;1.92;;;1.40;;
19673;SDS011;9986;50.610;7.230;2022-08-21T14:07:58;4.53;;;2.30;;
19673;SDS011;9986;50.610;7.230;2022-08-21T14:10:49;4.08;;;2.47;;
19673;SDS011;9986;50.610;7.230;2022-08-21T14:16:15;1.95;;;1.22;;
19673;SDS011;9986;50.610;7.230;2022-08-21T14:19:09;1.98;;;1.10;;
19673;SDS011;9986;50.610;7.230;2022-08-21T14:24:39;3.75;;;1.60;;
19673;SDS011;9986;50.610;7.230;2022-08-21T14:27:18;1.35;;;0.98;;
19673;SDS011;9986;50.610;7.230;2022-08-21T14:30:00;2.65;;;1.50;;
19673;SDS011;9986;50.610;7.230;2022-08-21T14:32:44;2.45;;;1.55;;
19673;SDS011;9986;50.610;7.230;2022-08-21T14:35:25;2.12;;;1.00;;
19673;SDS011;9986;50.610;7.230;2022-08-21T14:38:11;1.20;;;1.10;;
19673;SDS011;9986;50.610;7.230;2022-08-21T14:40:53;2.02;;;1.30;;
19673;SDS011;9986;50.610;7.230;2022-08-21T14:43:32;3.02;;;1.30;;
19673;SDS011;9986;50.610;7.230;2022-08-21T14:48:39;2.50;;;1.52;;
19673;SDS011;9986;50.610;7.230;2022-08-21T14:53:59;2.50;;;1.60;;
19673;SDS011;9986;50.610;7.230;2022-08-21T14:56:43;1.85;;;1.15;;
19673;SDS011;9986;50.610;7.230;2022-08-21T14:59:22;2.80;;;1.30;;
19673;SDS011;9986;50.610;7.230;2022-08-21T15:02:00;1.90;;;1.20;;
19673;SDS011;9986;50.610;7.230;2022-08-21T15:04:38;2.35;;;1.42;;
19673;SDS011;9986;50.610;7.230;2022-08-21T15:09:45;4.42;;;1.47;;
19673;SDS011;9986;50.610;7.230;2022-08-21T15:12:23;3.60;;;1.52;;
19673;SDS011;9986;50.610;7.230;2022-08-21T15:15:02;4.35;;;1.40;;
19673;SDS011;9986;50.610;7.230;2022-08-21T15:17:48;3.37;;;1.50;;
19673;SDS011;9986;50.610;7.230;2022-08-21T15:25:34;2.85;;;1.22;;
19673;SDS011;9986;50.610;7.230;2022-08-21T15:30:48;1.57;;;1.22;;
19673;SDS011;9986;50.610;7.230;2022-08-21T15:33:26;2.33;;;1.20;;
19673;SDS011;9986;50.610;7.230;2022-08-21T15:36:10;4.00;;;1.52;;
19673;SDS011;9986;50.610;7.230;2022-08-21T15:41:17;5.03;;;1.52;;
19673;SDS011;9986;50.610;7.230;2022-08-21T15:43:57;2.55;;;1.50;;
19673;SDS011;9986;50.610;7.230;2022-08-21T15:49:04;2.35;;;1.30;;
19673;SDS011;9986;50.610;7.230;2022-08-21T15:51:44;2.90;;;1.47;;
19673;SDS011;9986;50.610;7.230;2022-08-21T15:54:23;5.28;;;1.50;;
19673;SDS011;9986;50.610;7.230;2022-08-21T15:57:02;3.72;;;1.02;;
19673;SDS011;9986;50.610;7.230;2022-08-21T16:02:13;1.92;;;1.30;;
19673;SDS011;9986;50.610;7.230;2022-08-21T16:04:51;2.77;;;1.40;;
19673;SDS011;9986;50.610;7.230;2022-08-21T16:12:44;1.65;;;1.35;;
19673;SDS011;9986;50.610;7.230;2022-08-21T16:15:24;3.65;;;1.50;;
19673;SDS011;9986;50.610;7.230;2022-08-21T16:18:03;2.70;;;1.22;;
19673;SDS011;9986;50.610;7.230;2022-08-21T16:20:48;3.27;;;2.20;;
19673;SDS011;9986;50.610;7.230;2022-08-21T16:23:28;3.65;;;1.42;;
19673;SDS011;9986;50.610;7.230;2022-08-21T16:26:07;4.10;;;1.40;;
19673;SDS011;9986;50.610;7.230;2022-08-21T16:28:55;2.12;;;1.47;;
19673;SDS011;9986;50.610;7.230;2022-08-21T16:31:34;4.53;;;1.57;;
19673;SDS011;9986;50.610;7.230;2022-08-21T16:36:44;4.30;;;1.47;;
19673;SDS011;9986;50.610;7.230;2022-08-21T16:39:25;2.65;;;1.22;;
19673;SDS011;9986;50.610;7.230;2022-08-21T16:44:33;2.58;;;1.30;;
19673;SDS011;9986;50.610;7.230;2022-08-21T16:49:42;2.80;;;1.42;;
19673;SDS011;9986;50.610;7.230;2022-08-21T16:52:20;3.62;;;1.30;;
19673;SDS011;9986;50.610;7.230;2022-08-21T16:55:04;4.72;;;1.40;;
19673;SDS011;9986;50.610;7.230;2022-08-21T16:57:43;1.98;;;1.50;;
19673;SDS011;9986;50.610;7.230;2022-08-21T17:00:27;2.55;;;1.40;;
19673;SDS011;9986;50.610;7.230;2022-08-21T17:03:15;3.10;;;1.17;;
19673;SDS011;9986;50.610;7.230;2022-08-21T17:06:02;2.80;;;1.50;;
19673;SDS011;9986;50.610;7.230;2022-08-21T17:13:50;1.57;;;1.27;;
19673;SDS011;9986;50.610;7.230;2022-08-21T17:16:30;1.32;;;1.22;;
19673;SDS011;9986;50.610;7.230;2022-08-21T17:19:08;4.53;;;1.45;;
19673;SDS011;9986;50.610;7.230;2022-08-21T17:24:17;2.47;;;1.37;;
19673;SDS011;9986;50.610;7.230;2022-08-21T17:26:55;3.60;;;1.77;;
19673;SDS011;9986;50.610;7.230;2022-08-21T17:32:04;2.50;;;1.20;;
19673;SDS011;9986;50.610;7.230;2022-08-21T17:34:43;2.55;;;1.12;;
19673;SDS011;9986;50.610;7.230;2022-08-21T17:40:02;2.30;;;1.17;;
19673;SDS011;9986;50.610;7.230;2022-08-21T17:42:41;3.87;;;1.12;;
19673;SDS011;9986;50.610;7.230;2022-08-21T17:48:03;2.83;;;1.40;;
19673;SDS011;9986;50.610;7.230;2022-08-21T17:50:41;2.17;;;1.22;;
19673;SDS011;9986;50.610;7.230;2022-08-21T17:53:22;5.62;;;1.42;;
19673;SDS011;9986;50.610;7.230;2022-08-21T17:55:59;2.37;;;1.22;;
19673;SDS011;9986;50.610;7.230;2022-08-21T17:58:37;2.50;;;1.40;;
19673;SDS011;9986;50.610;7.230;2022-08-21T18:03:52;2.83;;;1.17;;
19673;SDS011;9986;50.610;7.230;2022-08-21T18:09:07;2.10;;;1.17;;
19673;SDS011;9986;50.610;7.230;2022-08-21T18:11:44;3.95;;;1.30;;
19673;SDS011;9986;50.610;7.230;2022-08-21T18:14:24;2.72;;;1.07;;
19673;SDS011;9986;50.610;7.230;2022-08-21T18:17:03;3.65;;;1.15;;
19673;SDS011;9986;50.610;7.230;2022-08-21T18:25:00;6.03;;;1.47;;
19673;SDS011;9986;50.610;7.230;2022-08-21T18:27:43;2.02;;;1.45;;
19673;SDS011;9986;50.610;7.230;2022-08-21T18:33:06;2.45;;;1.20;;
19673;SDS011;9986;50.610;7.230;2022-08-21T18:38:23;2.45;;;1.12;;
19673;SDS011;9986;50.610;7.230;2022-08-21T18:43:36;2.07;;;1.10;;
19673;SDS011;9986;50.610;7.230;2022-08-21T18:48:44;3.30;;;1.15;;
19673;SDS011;9986;50.610;7.230;2022-08-21T18:51:27;2.83;;;1.10;;
19673;SDS011;9986;50.610;7.230;2022-08-21T18:54:05;1.87;;;1.22;;
19673;SDS011;9986;50.610;7.230;2022-08-21T18:59:13;3.27;;;1.53;;
19673;SDS011;9986;50.610;7.230;2022-08-21T19:04:20;2.20;;;1.00;;
19673;SDS011;9986;50.610;7.230;2022-08-21T19:07:04;4.43;;;1.30;;
19673;SDS011;9986;50.610;7.230;2022-08-21T19:09:42;3.23;;;1.30;;
19673;SDS011;9986;50.610;7.230;2022-08-21T19:17:25;2.20;;;0.87;;
19673;SDS011;9986;50.610;7.230;2022-08-21T19:20:05;1.77;;;1.10;;
19673;SDS011;9986;50.610;7.230;2022-08-21T19:22:43;5.87;;;1.37;;
19673;SDS011;9986;50.610;7.230;2022-08-21T19:25:22;1.35;;;1.07;;
19673;SDS011;9986;50.610;7.230;2022-08-21T19:28:00;1.20;;;1.03;;
19673;SDS011;9986;50.610;7.230;2022-08-21T19:30:39;1.83;;;0.83;;
19673;SDS011;9986;50.610;7.230;2022-08-21T19:33:20;3.13;;;1.60;;
19673;SDS011;9986;50.610;7.230;2022-08-21T19:38:38;1.13;;;0.87;;
19673;SDS011;9986;50.610;7.230;2022-08-21T19:41:26;1.60;;;0.93;;
19673;SDS011;9986;50.610;7.230;2022-08-21T19:44:05;0.70;;;0.60;;
19673;SDS011;9986;50.610;7.230;2022-08-21T19:46:43;2.27;;;1.00;;
19673;SDS011;9986;50.610;7.230;2022-08-21T19:49:28;2.03;;;1.10;;
19673;SDS011;9986;50.610;7.230;2022-08-21T19:52:06;1.17;;;1.00;;
19673;SDS011;9986;50.610;7.230;2022-08-21T19:54:44;2.67;;;1.03;;
19673;SDS011;9986;50.610;7.230;2022-08-21T19:57:24;2.40;;;1.10;;
19673;SDS011;9986;50.610;7.230;2022-08-21T20:02:38;3.83;;;1.67;;
19673;SDS011;9986;50.610;7.230;2022-08-21T20:05:15;1.73;;;1.23;;
19673;SDS011;9986;50.610;7.230;2022-08-21T20:07:53;1.80;;;1.20;;
19673;SDS011;9986;50.610;7.230;2022-08-21T20:10:34;1.53;;;1.10;;
19673;SDS011;9986;50.610;7.230;2022-08-21T20:13:11;3.33;;;1.20;;
19673;SDS011;9986;50.610;7.230;2022-08-21T20:18:21;3.30;;;1.40;;
19673;SDS011;9986;50.610;7.230;2022-08-21T20:23:35;1.17;;;1.00;;
19673;SDS011;9986;50.610;7.230;2022-08-21T20:26:14;2.97;;;1.10;;
19673;SDS011;9986;50.610;7.230;2022-08-21T20:28:51;2.43;;;1.20;;
19673;SDS011;9986;50.610;7.230;2022-08-21T20:31:31;2.13;;;1.13;;
19673;SDS011;9986;50.610;7.230;2022-08-21T20:34:09;2.10;;;1.00;;
19673;SDS011;9986;50.610;7.230;2022-08-21T20:36:47;2.57;;;1.03;;
19673;SDS011;9986;50.610;7.230;2022-08-21T20:44:38;2.47;;;1.00;;
19673;SDS011;9986;50.610;7.230;2022-08-21T20:47:16;4.27;;;1.60;;
19673;SDS011;9986;50.610;7.230;2022-08-21T20:49:55;2.87;;;1.30;;
19673;SDS011;9986;50.610;7.230;2022-08-21T20:55:05;2.57;;;1.20;;
19673;SDS011;9986;50.610;7.230;2022-08-21T20:57:44;3.17;;;1.10;;
19673;SDS011;9986;50.610;7.230;2022-08-21T21:00:24;2.00;;;1.10;;
19673;SDS011;9986;50.610;7.230;2022-08-21T21:03:08;3.00;;;1.30;;
19673;SDS011;9986;50.610;7.230;2022-08-21T21:08:20;3.43;;;1.30;;
19673;SDS011;9986;50.610;7.230;2022-08-21T21:13:37;1.80;;;1.03;;
19673;SDS011;9986;50.610;7.230;2022-08-21T21:16:16;3.03;;;1.20;;
19673;SDS011;9986;50.610;7.230;2022-08-21T21:18:59;1.63;;;1.20;;
19673;SDS011;9986;50.610;7.230;2022-08-21T21:21:44;2.33;;;1.23;;
19673;SDS011;9986;50.610;7.230;2022-08-21T21:24:36;2.40;;;1.33;;
19673;SDS011;9986;50.610;7.230;2022-08-21T21:29:33;3.30;;;1.30;;
19673;SDS011;9986;50.610;7.230;2022-08-21T21:37:36;1.63;;;1.10;;
19673;SDS011;9986;50.610;7.230;2022-08-21T21:40:22;1.63;;;1.03;;
19673;SDS011;9986;50.610;7.230;2022-08-21T21:43:06;2.50;;;1.00;;
19673;SDS011;9986;50.610;7.230;2022-08-21T21:45:57;3.90;;;2.00;;
19673;SDS011;9986;50.610;7.230;2022-08-21T21:48:44;1.93;;;1.10;;
19673;SDS011;9986;50.610;7.230;2022-08-21T21:56:50;5.37;;;1.30;;